createdAt,value
2022-11-16T05:03:33.069Z,100.00
2022-11-16T05:07:45.968Z,100.00
2022-11-16T05:12:04.338Z,100.00
2022-11-16T05:16:16.221Z,100.00
2022-11-16T05:20:46.635Z,100.00
2022-11-16T05:24:59.073Z,100.00
2022-11-16T05:29:11.022Z,100.00
2022-11-16T05:33:22.695Z,100.00
2022-11-16T05:37:35.051Z,100.00
2022-11-16T05:41:47.174Z,100.00
2022-11-16T05:45:58.780Z,100.00
2022-11-16T05:50:10.550Z,100.00
2022-11-16T05:54:26.149Z,100.00
2022-11-16T05:58:37.948Z,100.00
2022-11-16T06:02:50.174Z,100.00
2022-11-16T06:11:48.079Z,100.00
2022-11-16T06:16:00.873Z,100.00
2022-11-16T06:20:14.362Z,100.00
2022-11-16T06:24:25.935Z,100.00
2022-11-16T06:28:37.607Z,100.00
2022-11-16T06:32:49.606Z,100.00
2022-11-16T06:37:01.317Z,100.00
2022-11-16T06:41:14.942Z,100.00
2022-11-16T06:45:30.547Z,100.00
2022-11-16T06:49:45.601Z,100.00
2022-11-16T06:54:03.431Z,100.00
2022-11-16T06:58:15.800Z,100.00
2022-11-16T07:02:28.521Z,100.00
2022-11-16T07:06:41.503Z,100.00
2022-11-16T07:10:53.898Z,100.00
2022-11-16T07:15:06.073Z,100.00
2022-11-16T07:19:20.243Z,100.00
2022-11-16T07:23:33.470Z,100.00
2022-11-16T07:27:45.394Z,100.00
2022-11-16T07:31:57.164Z,100.00
2022-11-16T07:36:21.569Z,100.00
2022-11-16T07:40:33.192Z,100.00
2022-11-16T07:44:45.511Z,100.00
2022-11-16T07:48:58.655Z,100.00
2022-11-16T07:53:34.591Z,100.00
2022-11-16T07:57:51.942Z,100.00
2022-11-16T08:02:05.030Z,100.00
2022-11-16T08:06:22.932Z,100.00
2022-11-16T08:10:35.662Z,100.00
2022-11-16T08:14:48.181Z,100.00
2022-11-16T08:19:01.113Z,100.00
2022-11-16T08:23:12.834Z,100.00
2022-11-16T08:27:24.439Z,100.00
2022-11-16T08:31:38.790Z,100.00
2022-11-16T08:35:56.000Z,100.00
2022-11-16T08:40:08.260Z,100.00
2022-11-16T08:44:23.202Z,100.00
2022-11-16T08:48:38.516Z,100.00
2022-11-16T08:52:51.016Z,100.00
2022-11-16T08:57:03.508Z,100.00
2022-11-16T09:01:20.175Z,100.00
2022-11-16T09:05:31.946Z,100.00
2022-11-16T09:09:43.481Z,99.71
2022-11-16T09:13:55.528Z,99.77
2022-11-16T09:18:07.094Z,99.73
2022-11-16T09:22:18.613Z,99.34
2022-11-16T09:26:30.128Z,99.16
2022-11-16T09:30:43.360Z,99.47
2022-11-16T09:34:54.866Z,99.28
2022-11-16T09:43:53.723Z,98.18
2022-11-16T09:48:12.466Z,97.26
2022-11-16T09:52:33.716Z,97.85
2022-11-16T09:56:47.508Z,97.00
2022-11-16T10:01:06.309Z,95.83
2022-11-16T10:05:27.121Z,95.45
2022-11-16T10:09:38.826Z,95.54
2022-11-16T10:14:19.056Z,95.08
2022-11-16T10:18:55.534Z,94.67
2022-11-16T10:23:26.588Z,95.24
2022-11-16T10:28:13.240Z,95.16
2022-11-16T10:32:29.770Z,94.29
2022-11-16T10:36:41.373Z,92.75
2022-11-16T10:41:01.833Z,92.99
2022-11-16T10:45:42.518Z,93.00
2022-11-16T10:50:00.314Z,92.95
2022-11-16T10:54:13.391Z,90.56
2022-11-16T10:58:24.853Z,90.81
2022-11-16T11:02:37.222Z,91.38
2022-11-16T11:06:54.847Z,90.47
2022-11-16T11:11:25.365Z,89.50
2022-11-16T11:15:38.718Z,90.41
2022-11-16T11:20:07.040Z,89.68
2022-11-16T11:28:50.823Z,88.01
2022-11-16T11:33:11.163Z,86.40
2022-11-16T11:37:33.047Z,87.79
2022-11-16T11:41:46.670Z,86.75
2022-11-16T11:46:09.040Z,87.18
2022-11-16T11:50:27.010Z,88.04
2022-11-16T11:54:46.017Z,87.10
2022-11-16T11:58:58.067Z,86.18
2022-11-16T12:03:18.588Z,84.77
2022-11-16T12:07:45.305Z,85.29
2022-11-16T12:12:18.602Z,83.92
2022-11-16T12:16:50.934Z,84.79
2022-11-16T12:21:17.538Z,83.53
2022-11-16T12:25:47.289Z,85.04
2022-11-16T12:30:09.561Z,85.52
2022-11-16T12:34:30.067Z,88.49
2022-11-16T12:38:58.469Z,88.36
2022-11-16T12:43:29.976Z,89.70
2022-11-16T12:48:05.685Z,91.15
2022-11-16T12:52:53.764Z,91.80
2022-11-16T12:57:17.374Z,92.22
2022-11-16T13:01:36.170Z,93.01
2022-11-16T13:06:02.286Z,92.72
2022-11-16T13:10:17.568Z,90.60
2022-11-16T13:14:36.754Z,89.09
2022-11-16T13:18:48.508Z,89.34
2022-11-16T13:23:14.088Z,89.32
2022-11-16T13:27:43.537Z,89.71
2022-11-16T13:32:02.081Z,89.78
2022-11-16T13:36:43.123Z,88.94
2022-11-16T13:41:27.711Z,88.61
2022-11-16T13:45:44.304Z,86.49
2022-11-16T13:50:02.412Z,86.69
2022-11-16T13:58:55.596Z,87.38
2022-11-16T14:03:16.045Z,86.80
2022-11-16T14:07:29.175Z,85.35
2022-11-16T14:11:40.765Z,85.73
2022-11-16T14:16:14.662Z,84.84
2022-11-16T14:20:34.309Z,82.92
2022-11-16T14:24:56.998Z,84.65
2022-11-16T14:29:24.379Z,85.12
2022-11-16T14:33:37.153Z,85.74
2022-11-16T14:37:58.448Z,85.61
2022-11-16T14:42:17.664Z,86.01
2022-11-16T14:46:35.022Z,85.83
2022-11-16T14:51:11.198Z,86.43
2022-11-16T14:55:25.273Z,87.61
2022-11-16T14:59:36.791Z,88.09
2022-11-16T15:03:57.773Z,86.87
2022-11-16T15:08:23.600Z,87.96
2022-11-16T15:12:41.514Z,88.12
2022-11-16T15:16:56.586Z,87.52
2022-11-16T15:21:22.174Z,88.31
2022-11-16T15:25:35.623Z,89.00
2022-11-16T15:29:47.655Z,88.78
2022-11-16T15:33:59.155Z,89.17
2022-11-16T15:38:19.930Z,88.85
2022-11-16T15:42:31.650Z,89.16
2022-11-16T15:46:47.087Z,89.37
2022-11-16T15:51:06.655Z,88.39
2022-11-16T15:55:37.607Z,87.81
2022-11-16T15:59:55.215Z,88.02
2022-11-16T16:04:07.693Z,87.40
2022-11-16T16:08:39.004Z,87.48
2022-11-16T16:12:55.398Z,88.19
2022-11-16T16:17:09.004Z,87.70
2022-11-16T16:21:20.585Z,88.52
2022-11-16T16:25:34.527Z,87.89
2022-11-16T16:29:47.756Z,87.62
2022-11-16T16:33:59.496Z,88.07
2022-11-16T16:38:13.728Z,87.52
2022-11-16T16:42:25.415Z,88.54
2022-11-16T16:46:36.976Z,88.68
2022-11-16T16:50:48.534Z,88.55
2022-11-16T16:55:00.013Z,88.66
2022-11-16T16:59:13.596Z,87.98
2022-11-16T17:03:25.102Z,88.70
2022-11-16T17:07:36.831Z,88.23
2022-11-16T17:11:48.529Z,87.82
2022-11-16T17:16:04.307Z,88.14
2022-11-16T17:20:16.378Z,86.33
2022-11-16T17:24:27.935Z,86.20
2022-11-16T17:28:39.451Z,85.56
2022-11-16T17:32:50.945Z,85.05
2022-11-16T17:37:02.500Z,85.33
2022-11-16T17:41:23.953Z,84.79
2022-11-16T17:45:35.707Z,85.82
2022-11-16T17:49:47.254Z,86.28
2022-11-16T17:53:58.932Z,86.06
2022-11-16T17:58:10.426Z,86.52
2022-11-16T18:02:22.063Z,86.06
2022-11-16T18:06:35.053Z,85.52
2022-11-16T18:10:46.631Z,85.63
2022-11-16T18:15:26.525Z,85.71
2022-11-16T18:19:29.657Z,85.02
2022-11-16T18:23:41.710Z,85.20
2022-11-16T18:27:54.106Z,85.56
2022-11-16T18:32:05.602Z,85.58
2022-11-16T18:36:19.174Z,84.47
2022-11-16T18:40:30.782Z,85.08
2022-11-16T18:44:42.263Z,84.59
2022-11-16T18:48:54.666Z,84.17
2022-11-16T18:53:06.154Z,83.90
2022-11-16T18:57:17.631Z,84.27
2022-11-16T19:01:29.268Z,86.00
2022-11-16T19:05:41.008Z,86.10
2022-11-16T19:09:52.527Z,85.80
2022-11-16T19:14:04.755Z,85.57
2022-11-16T19:18:20.936Z,84.73
2022-11-16T19:22:33.645Z,83.31
2022-11-16T19:26:45.249Z,84.33
2022-11-16T19:30:56.755Z,84.17
2022-11-16T19:35:10.828Z,84.42
2022-11-16T19:39:22.399Z,84.57
2022-11-16T19:43:34.429Z,84.81
2022-11-16T19:47:46.184Z,84.83
2022-11-16T19:51:59.313Z,85.06
2022-11-16T19:56:12.741Z,84.15
2022-11-16T20:00:24.326Z,84.15
2022-11-16T20:04:35.991Z,83.58
2022-11-16T20:08:52.577Z,83.61
2022-11-16T20:13:04.070Z,83.13
2022-11-16T20:17:15.629Z,83.00
2022-11-16T20:21:35.642Z,83.82
2022-11-16T20:25:47.162Z,82.90
2022-11-16T20:29:58.746Z,82.71
2022-11-16T20:34:14.093Z,82.66
2022-11-16T20:38:25.606Z,83.04
2022-11-16T20:42:37.203Z,82.70
2022-11-16T20:46:49.033Z,81.98
2022-11-16T20:51:00.564Z,81.57
2022-11-16T20:55:12.057Z,82.11
2022-11-16T20:59:23.609Z,82.64
2022-11-16T21:03:35.495Z,83.27
2022-11-16T21:07:47.230Z,84.37
2022-11-16T21:12:17.303Z,85.50
2022-11-16T21:16:28.795Z,86.65
2022-11-16T21:20:40.288Z,86.58
2022-11-16T21:24:51.822Z,87.23
2022-11-16T21:29:03.847Z,87.55
2022-11-16T21:33:15.326Z,87.98
2022-11-16T21:37:26.847Z,88.10
2022-11-16T21:41:38.409Z,89.50
2022-11-16T21:45:51.007Z,89.82
2022-11-16T21:50:30.638Z,90.17
2022-11-16T21:54:50.948Z,90.65
2022-11-16T21:59:13.822Z,91.37
2022-11-16T22:03:28.743Z,91.66
2022-11-16T22:07:41.239Z,92.08
2022-11-16T22:11:52.771Z,92.35
2022-11-16T22:16:09.501Z,92.52
2022-11-16T22:20:21.281Z,92.99
2022-11-16T22:24:32.811Z,92.99
2022-11-16T22:28:44.359Z,93.73
